Time;durP1;ratioP1;P1;durP2;ratioP2;P2;SDS_P1;SDS_P2;PMS_P1;PMS_P2;Temp;Humidity;BMP_temperature;BMP_pressure;BME280_temperature;BME280_humidity;BME280_pressure;Samples;Min_cycle;Max_cycle;Signal;HPM_P1;HPM_P2
2021/12/26 00:01:12;;;;;;;5.85;2.60;;;-1.80;81.60;;;;;;5008129;28;20049;-80
2021/12/26 00:03:40;;;;;;;5.32;2.05;;;-1.80;77.60;;;;;;5022159;28;20110;-82
2021/12/26 00:06:12;;;;;;;5.43;2.28;;;-2.00;76.50;;;;;;5018425;28;20042;-81
2021/12/26 00:08:41;;;;;;;5.50;2.20;;;-2.00;76.10;;;;;;5005043;28;20402;-81
2021/12/26 00:11:09;;;;;;;4.18;2.13;;;-2.10;75.90;;;;;;5002469;28;20053;-82
2021/12/26 00:13:35;;;;;;;4.55;1.88;;;-2.20;75.90;;;;;;4985510;28;20049;-83
2021/12/26 00:16:01;;;;;;;4.32;2.20;;;-2.30;75.70;;;;;;5003017;28;20049;-81
2021/12/26 00:18:27;;;;;;;4.82;2.30;;;-2.30;75.80;;;;;;5001329;28;20447;-81
2021/12/26 00:20:55;;;;;;;4.78;2.47;;;-2.40;75.70;;;;;;5012809;28;20045;-81
2021/12/26 00:23:21;;;;;;;6.97;2.28;;;-2.40;75.70;;;;;;5001457;28;20095;-81
2021/12/26 00:25:48;;;;;;;6.78;2.22;;;-2.50;75.80;;;;;;5007575;28;20486;-81
2021/12/26 00:28:14;;;;;;;4.28;2.60;;;-2.50;75.80;;;;;;5016550;28;20183;-81
2021/12/26 00:30:40;;;;;;;4.47;2.10;;;-2.60;75.70;;;;;;5017036;28;20124;-81
2021/12/26 00:33:09;;;;;;;6.65;2.45;;;-2.50;75.90;;;;;;5011508;28;20052;-81
2021/12/26 00:35:35;;;;;;;4.22;2.13;;;-2.60;75.90;;;;;;5019810;28;20061;-81
2021/12/26 00:38:04;;;;;;;3.90;2.65;;;-2.60;75.70;;;;;;5020621;28;20049;-82
2021/12/26 00:40:29;;;;;;;7.10;2.67;;;-2.70;75.60;;;;;;5003973;28;20405;-80
2021/12/26 00:42:55;;;;;;;5.95;2.30;;;-2.70;75.70;;;;;;5004289;28;20349;-81
2021/12/26 00:45:24;;;;;;;4.50;2.58;;;-2.70;75.60;;;;;;5003421;28;20044;-81
2021/12/26 00:47:50;;;;;;;6.18;2.60;;;-2.70;75.60;;;;;;5003648;28;20103;-81
2021/12/26 00:50:20;;;;;;;3.88;1.92;;;-2.80;75.50;;;;;;5000527;28;20045;-81
2021/12/26 00:52:46;;;;;;;4.90;2.45;;;-2.80;75.50;;;;;;5020248;28;20493;-81
2021/12/26 00:55:12;;;;;;;5.05;2.80;;;-2.80;75.40;;;;;;5015925;28;20122;-81
2021/12/26 00:57:38;;;;;;;5.03;2.72;;;-2.80;75.40;;;;;;5000498;28;20117;-81
2021/12/26 01:00:09;;;;;;;3.40;1.95;;;-2.90;75.40;;;;;;5019982;28;20073;-85
2021/12/26 01:02:35;;;;;;;5.00;2.20;;;-2.90;75.40;;;;;;5003611;28;20521;-81
2021/12/26 01:05:01;;;;;;;4.50;2.13;;;-2.90;75.30;;;;;;5003814;28;20139;-81
2021/12/26 01:09:56;;;;;;;5.35;2.38;;;-2.90;75.30;;;;;;5021136;28;20052;-81
2021/12/26 01:12:22;;;;;;;4.65;2.33;;;-3.00;75.30;;;;;;5019958;28;20485;-81
2021/12/26 01:14:56;;;;;;;5.10;2.45;;;-3.00;75.30;;;;;;5020567;28;20049;-81
2021/12/26 01:17:24;;;;;;;4.93;1.98;;;-2.90;75.20;;;;;;5020686;28;20048;-81
2021/12/26 01:19:52;;;;;;;4.63;2.22;;;-3.00;75.10;;;;;;5004249;28;20187;-81
2021/12/26 01:22:18;;;;;;;5.20;2.40;;;-3.10;75.10;;;;;;5003728;28;20045;-81
2021/12/26 01:24:44;;;;;;;6.07;2.50;;;-3.10;75.00;;;;;;5003562;28;20138;-81
2021/12/26 01:27:10;;;;;;;5.13;2.50;;;-3.10;75.30;;;;;;5002694;28;20036;-82
2021/12/26 01:29:38;;;;;;;4.32;2.25;;;-3.10;75.10;;;;;;5019652;28;20052;-81
2021/12/26 01:32:04;;;;;;;6.07;2.15;;;-3.10;75.10;;;;;;5003374;28;20067;-81
2021/12/26 01:34:30;;;;;;;4.35;2.50;;;-3.10;75.10;;;;;;5019112;28;20048;-81
2021/12/26 01:36:58;;;;;;;3.75;2.40;;;-3.10;75.00;;;;;;5003178;28;20093;-81
2021/12/26 01:39:24;;;;;;;4.95;2.28;;;-3.10;74.90;;;;;;5003634;28;20139;-81
2021/12/26 01:41:50;;;;;;;4.05;2.08;;;-3.20;74.90;;;;;;5003308;28;20137;-81
2021/12/26 01:44:16;;;;;;;3.55;1.85;;;-3.10;75.00;;;;;;5002649;28;20053;-81
2021/12/26 01:46:43;;;;;;;4.65;2.28;;;-3.10;74.90;;;;;;5001797;28;20053;-81
2021/12/26 01:49:19;;;;;;;5.00;2.20;;;-3.20;74.80;;;;;;4987102;28;20139;-81
2021/12/26 01:51:46;;;;;;;5.22;2.50;;;-3.20;74.60;;;;;;4985449;28;20048;-84
2021/12/26 01:54:13;;;;;;;5.55;2.28;;;-3.20;74.70;;;;;;4982676;28;20049;-81
2021/12/26 01:56:40;;;;;;;4.45;2.15;;;-3.20;74.70;;;;;;4983229;28;20089;-81
2021/12/26 01:59:06;;;;;;;4.80;2.30;;;-3.20;74.80;;;;;;4982367;28;20111;-80
2021/12/26 02:01:32;;;;;;;5.28;1.85;;;-3.20;74.80;;;;;;4982809;28;20076;-81
2021/12/26 02:03:58;;;;;;;4.45;2.08;;;-3.20;74.80;;;;;;4983095;28;20506;-81
2021/12/26 02:06:23;;;;;;;4.85;2.30;;;-3.20;74.80;;;;;;4982485;28;20041;-81
2021/12/26 02:08:49;;;;;;;6.70;2.65;;;-3.10;75.00;;;;;;5007643;28;20592;-81
2021/12/26 02:11:16;;;;;;;5.50;2.40;;;-3.20;74.90;;;;;;4983181;28;20049;-85
2021/12/26 02:13:43;;;;;;;3.47;2.15;;;-3.20;74.90;;;;;;4966924;28;20060;-82
2021/12/26 02:16:09;;;;;;;6.03;2.55;;;-3.20;74.70;;;;;;4966888;28;20124;-81
2021/12/26 02:18:35;;;;;;;4.03;2.33;;;-3.20;74.80;;;;;;4966349;28;20155;-81
2021/12/26 02:21:16;;;;;;;5.90;2.67;;;-3.20;74.60;;;;;;4986079;28;20110;-83
2021/12/26 02:23:55;;;;;;;6.85;2.53;;;-3.10;74.70;;;;;;4982280;28;20138;-81
2021/12/26 02:29:05;;;;;;;4.53;2.20;;;-3.30;74.70;;;;;;5003482;28;20489;-82
2021/12/26 02:31:31;;;;;;;4.18;2.42;;;-3.20;74.70;;;;;;4998200;28;20049;-81
2021/12/26 02:33:59;;;;;;;4.15;2.25;;;-3.20;74.60;;;;;;5013308;28;20041;-81
2021/12/26 02:36:25;;;;;;;5.45;2.72;;;-3.20;74.50;;;;;;4994289;28;20080;-81
2021/12/26 02:38:51;;;;;;;4.95;2.63;;;-3.20;74.70;;;;;;4980126;28;20445;-81
2021/12/26 02:41:17;;;;;;;5.10;2.63;;;-3.20;74.60;;;;;;4998603;28;20401;-82
2021/12/26 02:43:42;;;;;;;3.70;2.13;;;-3.20;74.60;;;;;;4997181;28;20096;-82
2021/12/26 02:46:08;;;;;;;4.32;2.33;;;-3.20;74.60;;;;;;4994795;28;20045;-82
2021/12/26 02:48:35;;;;;;;3.80;2.05;;;-3.20;74.70;;;;;;4999246;28;20466;-85
2021/12/26 02:51:01;;;;;;;5.10;2.80;;;-3.20;75.10;;;;;;5015236;28;20045;-81
2021/12/26 02:53:27;;;;;;;5.80;2.88;;;-3.10;75.10;;;;;;5016255;28;20493;-82
2021/12/26 02:55:54;;;;;;;6.22;2.90;;;-3.20;74.90;;;;;;5002185;28;20048;-83
2021/12/26 02:58:20;;;;;;;7.45;3.60;;;-3.10;74.70;;;;;;5016409;28;20048;-82
2021/12/26 03:00:50;;;;;;;5.47;2.95;;;-3.20;74.50;;;;;;4997530;28;20755;-83
2021/12/26 03:03:15;;;;;;;5.75;3.03;;;-3.20;74.40;;;;;;5033545;28;20048;-83
2021/12/26 03:05:43;;;;;;;6.38;3.78;;;-3.20;74.50;;;;;;5003629;28;20562;-82
2021/12/26 03:08:11;;;;;;;6.30;3.17;;;-3.20;74.40;;;;;;5004268;28;20041;-80
2021/12/26 03:10:37;;;;;;;5.38;2.80;;;-3.20;74.40;;;;;;5020406;28;20044;-82
2021/12/26 03:13:05;;;;;;;4.95;2.90;;;-3.20;74.40;;;;;;5028909;28;20130;-81
2021/12/26 03:15:31;;;;;;;3.92;2.33;;;-3.20;74.50;;;;;;5012231;28;20098;-80
2021/12/26 03:17:57;;;;;;;5.70;2.45;;;-3.30;74.40;;;;;;5002506;28;20389;-80
2021/12/26 03:20:30;;;;;;;5.18;3.13;;;-3.20;74.60;;;;;;5011641;28;20087;-86
2021/12/26 03:22:59;;;;;;;4.32;2.40;;;-3.20;74.50;;;;;;4995958;28;20040;-81
2021/12/26 03:25:25;;;;;;;5.35;2.92;;;-3.20;74.40;;;;;;5004970;28;20047;-80
2021/12/26 03:27:53;;;;;;;4.20;2.30;;;-3.20;74.40;;;;;;5004037;28;20056;-80
2021/12/26 03:30:21;;;;;;;4.60;2.80;;;-3.20;74.30;;;;;;5002199;28;20063;-80
2021/12/26 03:32:48;;;;;;;6.85;3.15;;;-3.20;74.20;;;;;;5004167;28;20109;-80
2021/12/26 03:35:14;;;;;;;6.40;2.78;;;-3.20;74.20;;;;;;5017542;28;20052;-81
2021/12/26 03:37:41;;;;;;;4.53;2.95;;;-3.20;74.20;;;;;;5004462;28;20048;-81
2021/12/26 03:40:09;;;;;;;5.28;2.70;;;-3.20;74.20;;;;;;5000871;28;20112;-81
2021/12/26 03:42:35;;;;;;;6.03;2.92;;;-3.20;74.10;;;;;;4999095;28;20084;-82
2021/12/26 03:45:01;;;;;;;5.20;2.42;;;-3.20;74.20;;;;;;5019824;28;20076;-82
2021/12/26 03:47:29;;;;;;;4.13;2.50;;;-3.20;74.20;;;;;;5014378;28;20061;-81
2021/12/26 03:49:55;;;;;;;4.25;2.60;;;-3.20;74.20;;;;;;5017355;28;20400;-81
2021/12/26 03:52:24;;;;;;;3.67;2.58;;;-3.20;74.20;;;;;;5015291;28;20044;-81
2021/12/26 03:54:51;;;;;;;4.57;2.80;;;-3.30;74.00;;;;;;5034912;28;20045;-81
2021/12/26 03:57:19;;;;;;;4.85;2.75;;;-3.20;74.80;;;;;;5003586;28;20048;-81
2021/12/26 03:59:45;;;;;;;6.07;2.70;;;-3.30;74.00;;;;;;5020710;28;20127;-80
2021/12/26 04:02:11;;;;;;;6.05;2.47;;;-3.30;74.00;;;;;;5000949;28;20148;-81
2021/12/26 04:04:38;;;;;;;7.75;3.33;;;-3.30;74.00;;;;;;5003777;28;20049;-82
2021/12/26 04:07:04;;;;;;;4.00;2.72;;;-3.30;74.00;;;;;;5020361;28;20067;-81
2021/12/26 04:09:29;;;;;;;5.22;2.83;;;-3.30;73.90;;;;;;5005007;28;20392;-80
2021/12/26 04:11:55;;;;;;;4.25;2.80;;;-3.30;74.00;;;;;;5007766;28;20048;-80
2021/12/26 04:14:21;;;;;;;6.30;2.80;;;-3.30;74.10;;;;;;5020104;28;20489;-81
2021/12/26 04:16:47;;;;;;;5.78;2.95;;;-3.30;74.20;;;;;;5004406;28;20041;-80
2021/12/26 04:19:12;;;;;;;6.80;3.40;;;-3.30;74.20;;;;;;5004099;28;20123;-81
2021/12/26 04:21:38;;;;;;;7.47;3.85;;;-3.30;74.10;;;;;;5003919;28;20049;-85
2021/12/26 04:24:07;;;;;;;7.25;3.20;;;-3.30;74.10;;;;;;5006691;28;20456;-81
2021/12/26 04:26:33;;;;;;;6.55;3.00;;;-3.40;74.20;;;;;;5007936;28;20369;-80
2021/12/26 04:28:59;;;;;;;5.53;3.22;;;-3.30;74.20;;;;;;5007214;28;20052;-80
2021/12/26 04:31:25;;;;;;;7.53;2.95;;;-3.30;74.10;;;;;;5007680;28;20113;-81
2021/12/26 04:33:53;;;;;;;4.95;2.92;;;-3.30;74.10;;;;;;5006993;28;20098;-81
2021/12/26 04:36:20;;;;;;;6.47;2.95;;;-3.30;74.10;;;;;;5007465;28;20083;-82
2021/12/26 04:38:46;;;;;;;6.63;3.05;;;-3.30;74.10;;;;;;5007090;28;20048;-81
2021/12/26 04:41:12;;;;;;;6.93;3.42;;;-3.30;74.00;;;;;;5007225;28;20063;-81
2021/12/26 04:43:38;;;;;;;5.10;2.92;;;-3.30;74.10;;;;;;5024093;28;20059;-81
2021/12/26 04:46:07;;;;;;;5.82;3.10;;;-3.30;74.10;;;;;;5007015;28;20105;-82
2021/12/26 04:48:37;;;;;;;5.30;3.17;;;-3.30;74.00;;;;;;5008216;28;20063;-80
2021/12/26 04:51:03;;;;;;;5.65;3.03;;;-3.30;74.10;;;;;;5023296;28;20076;-81
2021/12/26 04:53:29;;;;;;;5.57;3.40;;;-3.30;74.00;;;;;;5023575;28;20555;-81
2021/12/26 04:55:57;;;;;;;7.47;3.63;;;-3.30;74.20;;;;;;5006844;28;20137;-81
2021/12/26 04:58:23;;;;;;;5.53;3.20;;;-3.30;74.10;;;;;;5007502;28;20052;-80
2021/12/26 05:00:49;;;;;;;6.97;3.85;;;-3.30;74.10;;;;;;5007040;28;20060;-81
2021/12/26 05:03:16;;;;;;;6.03;3.50;;;-3.30;74.10;;;;;;5006876;28;20062;-81
2021/12/26 05:05:44;;;;;;;5.85;3.25;;;-3.30;74.00;;;;;;5007010;28;20137;-80
2021/12/26 05:08:10;;;;;;;6.97;3.35;;;-3.40;74.10;;;;;;5006877;28;20049;-81
2021/12/26 05:10:35;;;;;;;7.43;3.75;;;-3.30;74.10;;;;;;5007018;28;20052;-81
2021/12/26 05:13:02;;;;;;;6.78;4.22;;;-3.30;74.10;;;;;;5006653;28;20047;-81
2021/12/26 05:15:28;;;;;;;7.93;3.90;;;-3.30;74.10;;;;;;5006825;28;20048;-81
2021/12/26 05:17:55;;;;;;;7.15;3.20;;;-3.30;74.10;;;;;;5006156;28;20051;-80
2021/12/26 05:20:21;;;;;;;5.10;3.78;;;-3.30;74.20;;;;;;5019530;28;20044;-80
2021/12/26 05:22:54;;;;;;;6.43;3.33;;;-3.40;74.00;;;;;;5020480;28;20041;-81
2021/12/26 05:25:21;;;;;;;6.35;4.00;;;-3.30;74.00;;;;;;5003182;28;20059;-81
2021/12/26 05:27:48;;;;;;;5.45;3.10;;;-3.30;74.00;;;;;;5003378;28;20123;-84
2021/12/26 05:30:15;;;;;;;6.10;3.63;;;-3.30;74.00;;;;;;5003569;28;20047;-80
2021/12/26 05:32:44;;;;;;;7.55;4.25;;;-3.30;73.90;;;;;;5004166;28;20106;-80
2021/12/26 05:35:10;;;;;;;7.28;3.72;;;-3.30;73.80;;;;;;5019215;28;20049;-80
2021/12/26 05:37:36;;;;;;;5.38;3.10;;;-3.30;73.90;;;;;;4988041;28;20056;-80
2021/12/26 05:40:05;;;;;;;5.43;4.03;;;-3.40;73.70;;;;;;5003465;28;20057;-80
2021/12/26 05:42:31;;;;;;;6.95;3.65;;;-3.30;73.80;;;;;;5019840;28;20059;-80
2021/12/26 05:44:57;;;;;;;7.47;3.60;;;-3.30;73.80;;;;;;5002853;28;20045;-81
2021/12/26 05:47:23;;;;;;;6.82;4.10;;;-3.30;73.90;;;;;;5002248;28;20093;-80
2021/12/26 05:49:49;;;;;;;5.03;3.35;;;-3.30;73.90;;;;;;5002703;28;20204;-80
2021/12/26 05:52:15;;;;;;;6.43;3.95;;;-3.30;73.80;;;;;;4987098;28;20065;-80
2021/12/26 05:54:40;;;;;;;6.07;4.03;;;-3.30;73.80;;;;;;5004128;28;20474;-81
2021/12/26 05:57:07;;;;;;;6.90;3.67;;;-3.30;73.80;;;;;;5002391;28;20041;-80
2021/12/26 05:59:35;;;;;;;7.30;3.83;;;-3.30;73.80;;;;;;5003283;28;20346;-80
2021/12/26 06:02:01;;;;;;;7.38;4.07;;;-3.30;73.80;;;;;;5002843;28;20045;-80
2021/12/26 06:04:26;;;;;;;6.57;3.70;;;-3.30;73.80;;;;;;4986631;28;20131;-80
2021/12/26 06:06:53;;;;;;;8.35;4.50;;;-3.30;73.80;;;;;;5002847;28;20136;-80
2021/12/26 06:09:19;;;;;;;6.85;3.92;;;-3.40;73.80;;;;;;4986263;28;20052;-80
2021/12/26 06:11:45;;;;;;;6.05;4.20;;;-3.40;73.90;;;;;;5002599;28;20052;-80
2021/12/26 06:14:10;;;;;;;6.03;4.25;;;-3.40;74.10;;;;;;5001449;28;20048;-80
2021/12/26 06:16:36;;;;;;;6.68;3.92;;;-3.30;74.00;;;;;;5002241;28;20045;-81
2021/12/26 06:19:02;;;;;;;5.40;3.80;;;-3.30;73.90;;;;;;5001592;28;20049;-81
2021/12/26 06:21:28;;;;;;;6.60;4.82;;;-3.30;73.90;;;;;;5002120;28;20049;-80
2021/12/26 06:23:54;;;;;;;6.45;4.05;;;-3.40;73.90;;;;;;5019267;28;20084;-80
2021/12/26 06:26:20;;;;;;;7.88;4.20;;;-3.40;74.00;;;;;;5002890;28;20478;-80
2021/12/26 06:28:46;;;;;;;5.55;3.40;;;-3.30;74.10;;;;;;5002391;28;20041;-81
2021/12/26 06:31:15;;;;;;;6.80;3.63;;;-3.30;74.00;;;;;;5034850;28;20075;-82
2021/12/26 06:33:41;;;;;;;6.47;3.95;;;-3.40;74.00;;;;;;4985850;28;20063;-81
2021/12/26 06:36:07;;;;;;;7.18;4.78;;;-3.30;74.10;;;;;;4985479;28;20041;-81
2021/12/26 06:38:34;;;;;;;7.35;4.07;;;-3.30;74.10;;;;;;5002132;28;20110;-81
2021/12/26 06:41:03;;;;;;;5.75;3.45;;;-3.30;74.10;;;;;;5018274;28;20045;-84
2021/12/26 06:43:29;;;;;;;6.18;3.72;;;-3.30;74.10;;;;;;5002131;28;20041;-80
2021/12/26 06:45:55;;;;;;;6.75;4.18;;;-3.30;74.00;;;;;;5001217;28;20083;-80
2021/12/26 06:48:21;;;;;;;7.03;4.50;;;-3.30;74.20;;;;;;5001091;28;20064;-80
2021/12/26 06:50:47;;;;;;;7.43;4.40;;;-3.30;73.90;;;;;;5002010;28;20045;-80
2021/12/26 06:53:13;;;;;;;7.32;5.10;;;-3.30;74.00;;;;;;5001110;28;20060;-81
2021/12/26 06:55:39;;;;;;;5.70;4.03;;;-3.40;73.90;;;;;;5001695;28;20110;-81
2021/12/26 06:58:05;;;;;;;9.95;5.13;;;-3.30;74.00;;;;;;4985557;28;20049;-85
2021/12/26 07:00:31;;;;;;;6.95;4.53;;;-3.30;73.90;;;;;;5001958;28;20053;-80
2021/12/26 07:02:58;;;;;;;7.25;4.22;;;-3.30;74.10;;;;;;5001760;28;20461;-81
2021/12/26 07:05:24;;;;;;;8.20;4.70;;;-3.30;74.00;;;;;;5001615;28;20049;-81
2021/12/26 07:07:50;;;;;;;6.47;3.90;;;-3.30;74.00;;;;;;5017743;28;20048;-80
2021/12/26 07:10:16;;;;;;;5.53;3.78;;;-3.30;74.00;;;;;;5001677;28;20563;-80
2021/12/26 07:12:42;;;;;;;6.32;4.20;;;-3.30;74.10;;;;;;5001804;28;20497;-81
2021/12/26 07:15:08;;;;;;;8.13;3.95;;;-3.40;74.10;;;;;;5003162;28;20053;-84
2021/12/26 07:17:34;;;;;;;5.72;4.10;;;-3.30;74.20;;;;;;5001583;28;20131;-80
2021/12/26 07:20:00;;;;;;;7.95;4.13;;;-3.30;74.20;;;;;;5003862;28;20553;-81
2021/12/26 07:22:26;;;;;;;8.77;4.75;;;-3.30;74.10;;;;;;5034273;28;20481;-81
2021/12/26 07:24:53;;;;;;;8.00;4.85;;;-3.30;74.00;;;;;;5005974;28;20114;-80
2021/12/26 07:27:18;;;;;;;8.48;4.75;;;-3.30;74.10;;;;;;5002621;28;20082;-80
2021/12/26 07:29:44;;;;;;;7.90;4.60;;;-3.30;74.20;;;;;;5005077;28;20083;-80
2021/12/26 07:32:13;;;;;;;6.90;4.75;;;-3.30;74.00;;;;;;5004150;28;20405;-88
2021/12/26 07:34:40;;;;;;;7.43;4.30;;;-3.30;74.00;;;;;;5038188;28;20045;-80
2021/12/26 07:37:05;;;;;;;6.93;4.70;;;-3.30;73.90;;;;;;5021337;28;20055;-80
2021/12/26 07:39:31;;;;;;;6.30;4.20;;;-3.30;74.00;;;;;;5020458;28;20032;-79
2021/12/26 07:41:57;;;;;;;6.07;4.22;;;-3.20;74.10;;;;;;5021322;28;20131;-79
2021/12/26 07:44:25;;;;;;;8.07;4.85;;;-3.30;73.90;;;;;;5003256;28;20076;-83
2021/12/26 07:46:52;;;;;;;10.18;5.45;;;-3.20;74.20;;;;;;5036729;28;20052;-80
2021/12/26 07:49:19;;;;;;;9.25;4.43;;;-3.20;74.20;;;;;;5007990;28;20102;-81
2021/12/26 07:51:49;;;;;;;7.10;4.80;;;-3.20;74.00;;;;;;4998778;28;20057;-81
2021/12/26 07:54:25;;;;;;;9.52;5.10;;;-3.20;74.20;;;;;;5006937;28;20531;-86
2021/12/26 07:56:54;;;;;;;8.10;4.97;;;-3.20;74.00;;;;;;5009444;28;20095;-80
2021/12/26 07:59:20;;;;;;;7.97;4.82;;;-3.20;74.00;;;;;;5020879;28;20135;-81
2021/12/26 08:01:46;;;;;;;10.25;4.97;;;-3.20;74.00;;;;;;5004672;28;20119;-81
2021/12/26 08:04:15;;;;;;;9.18;5.55;;;-3.20;73.90;;;;;;5002001;28;20045;-80
2021/12/26 08:06:46;;;;;;;8.52;4.65;;;-3.20;73.90;;;;;;5005186;28;20052;-80
2021/12/26 08:09:12;;;;;;;7.90;5.35;;;-3.20;74.00;;;;;;5014412;28;20483;-81
2021/12/26 08:12:00;;;;;;;8.48;5.43;;;-3.20;73.90;;;;;;5022361;28;20059;-80
2021/12/26 08:14:29;;;;;;;8.48;4.90;;;-3.20;74.00;;;;;;5041359;28;20087;-80
2021/12/26 08:17:05;;;;;;;6.38;4.60;;;-3.20;74.00;;;;;;5009115;28;20049;-81
2021/12/26 08:19:31;;;;;;;7.55;5.13;;;-3.10;74.10;;;;;;5021706;28;20401;-80
2021/12/26 08:21:58;;;;;;;6.22;5.13;;;-3.20;73.90;;;;;;5023286;28;20037;-80
2021/12/26 08:24:30;;;;;;;7.47;5.50;;;-3.10;73.90;;;;;;5041939;28;20131;-81
2021/12/26 08:27:13;;;;;;;8.77;5.10;;;-3.10;74.00;;;;;;5004979;28;20124;-80
2021/12/26 08:30:02;;;;;;;7.47;4.93;;;-3.10;73.90;;;;;;4990163;28;20143;-81
2021/12/26 10:25:39;;;;;;;10.73;6.43;;;-1.50;70.90;;;;;;5119558;27;20399;-85
2021/12/26 10:28:11;;;;;;;10.52;6.00;;;-1.20;70.80;;;;;;5041049;28;20047;-85
2021/12/26 10:30:44;;;;;;;9.65;6.15;;;-1.20;70.50;;;;;;5065137;28;20052;-82
2021/12/26 10:33:10;;;;;;;9.13;6.25;;;-1.20;70.60;;;;;;5018790;28;20048;-86
2021/12/26 10:35:36;;;;;;;9.73;6.43;;;-1.20;70.50;;;;;;5051578;28;20055;-88
2021/12/26 10:38:02;;;;;;;9.52;5.95;;;-1.10;70.60;;;;;;5054027;28;20066;-85
2021/12/26 10:40:31;;;;;;;9.75;6.20;;;-1.10;70.80;;;;;;5068287;28;20055;-82
2021/12/26 10:42:58;;;;;;;8.68;6.45;;;-1.00;70.90;;;;;;5042994;28;20044;-83
2021/12/26 10:45:31;;;;;;;8.45;6.07;;;-1.00;71.40;;;;;;5045955;28;20055;-85
2021/12/26 10:48:06;;;;;;;8.05;6.65;;;-0.80;71.60;;;;;;5036911;28;20496;-84
2021/12/26 10:50:34;;;;;;;9.80;6.82;;;-0.80;71.80;;;;;;5032202;28;20075;-84
2021/12/26 10:53:05;;;;;;;11.77;6.80;;;-0.70;71.60;;;;;;5036901;28;20048;-83
2021/12/26 10:55:54;;;;;;;9.85;7.45;;;-0.60;71.90;;;;;;5050354;28;20094;-84
2021/12/26 10:58:21;;;;;;;12.77;6.70;;;-0.60;71.70;;;;;;5062918;28;20044;-84
2021/12/26 11:00:56;;;;;;;10.05;6.55;;;-0.50;71.50;;;;;;5040644;28;20052;-84
2021/12/26 11:03:27;;;;;;;10.38;6.75;;;-0.50;71.30;;;;;;5036995;28;20058;-84
2021/12/26 11:05:55;;;;;;;10.40;7.13;;;-0.30;71.50;;;;;;5062294;28;20484;-88
2021/12/26 11:08:35;;;;;;;9.85;7.65;;;-0.20;71.60;;;;;;5018198;28;20114;-84
2021/12/26 11:11:16;;;;;;;11.13;7.68;;;-0.10;71.90;;;;;;5048354;28;20044;-85
2021/12/26 11:13:42;;;;;;;12.15;8.20;;;0.10;71.50;;;;;;5071243;28;20523;-86
2021/12/26 11:16:12;;;;;;;10.98;7.15;;;0.30;71.60;;;;;;5037767;28;20068;-87
2021/12/26 11:18:38;;;;;;;10.57;6.95;;;0.50;71.20;;;;;;5037044;28;20084;-86
2021/12/26 11:21:08;;;;;;;9.88;6.55;;;0.90;69.90;;;;;;5070344;28;20117;-84
2021/12/26 11:23:38;;;;;;;9.68;7.32;;;1.50;68.50;;;;;;5027083;28;20449;-86
2021/12/26 11:26:05;;;;;;;11.13;7.70;;;2.20;67.00;;;;;;5034860;28;20056;-82
2021/12/26 11:28:40;;;;;;;12.15;7.78;;;2.80;65.10;;;;;;5050876;28;20040;-81
2021/12/26 11:31:14;;;;;;;10.43;7.03;;;3.50;63.70;;;;;;5030565;28;20048;-78
2021/12/26 11:33:40;;;;;;;11.20;7.25;;;4.10;61.60;;;;;;5057186;28;20381;-78
2021/12/26 11:36:09;;;;;;;12.20;7.50;;;4.60;60.20;;;;;;5030508;28;20048;-78
2021/12/26 11:38:35;;;;;;;12.27;7.53;;;5.30;60.10;;;;;;5037986;28;20201;-81
2021/12/26 11:41:04;;;;;;;11.00;7.10;;;5.70;57.90;;;;;;5044126;28;20560;-80
2021/12/26 11:43:51;;;;;;;10.52;7.05;;;6.20;57.30;;;;;;5030593;28;20086;-79
2021/12/26 11:46:55;;;;;;;12.30;7.55;;;6.70;56.40;;;;;;5079245;28;20438;-81
2021/12/26 11:49:44;;;;;;;9.52;7.45;;;7.10;55.10;;;;;;5026843;28;20036;-81
2021/12/26 11:52:50;;;;;;;12.38;6.57;;;7.60;54.70;;;;;;5076245;28;20432;-83
2021/12/26 11:55:38;;;;;;;9.70;6.57;;;8.00;54.00;;;;;;5051769;28;20087;-79
2021/12/26 11:58:23;;;;;;;8.30;5.90;;;8.40;52.90;;;;;;5052756;28;20044;-79
2021/12/26 12:00:52;;;;;;;9.88;7.13;;;8.60;52.20;;;;;;5033818;28;20053;-82
2021/12/26 12:03:23;;;;;;;9.45;6.82;;;8.80;53.10;;;;;;5048126;28;20048;-81
2021/12/26 12:05:50;;;;;;;8.93;6.55;;;8.70;52.10;;;;;;5025830;28;20036;-81
2021/12/26 12:08:27;;;;;;;8.18;5.97;;;8.50;52.10;;;;;;5017706;28;20044;-79
2021/12/26 12:10:54;;;;;;;8.82;7.10;;;8.30;52.50;;;;;;5005182;28;20445;-80
2021/12/26 12:13:23;;;;;;;10.85;7.53;;;8.40;52.90;;;;;;5060826;28;20049;-78
2021/12/26 12:15:52;;;;;;;9.10;7.13;;;8.50;52.10;;;;;;5019802;28;20045;-79
2021/12/26 12:18:23;;;;;;;7.97;6.13;;;8.60;51.60;;;;;;5029963;28;20067;-79
2021/12/26 12:21:07;;;;;;;9.23;6.75;;;8.60;51.90;;;;;;5040481;28;20045;-79
2021/12/26 12:23:36;;;;;;;9.40;7.38;;;8.80;50.60;;;;;;5055404;28;20072;-80
2021/12/26 12:26:02;;;;;;;11.70;7.35;;;8.90;51.80;;;;;;5018195;28;20048;-79
2021/12/26 12:28:36;;;;;;;11.68;7.40;;;9.10;51.40;;;;;;5017528;28;20049;-82
2021/12/26 12:31:08;;;;;;;8.13;6.57;;;8.90;50.90;;;;;;5015032;28;20045;-78
2021/12/26 12:33:34;;;;;;;8.05;6.75;;;8.60;50.30;;;;;;5075934;28;20106;-77
2021/12/26 12:36:08;;;;;;;8.98;6.70;;;8.50;51.40;;;;;;5031696;28;20406;-76
2021/12/26 12:38:39;;;;;;;8.70;7.38;;;8.20;51.20;;;;;;5046648;28;20059;-78
2021/12/26 12:41:26;;;;;;;9.80;6.90;;;7.90;52.10;;;;;;5028469;28;20059;-77
2021/12/26 12:43:52;;;;;;;9.95;8.00;;;7.70;52.60;;;;;;5030602;28;20048;-79
2021/12/26 12:46:17;;;;;;;10.45;7.40;;;7.40;52.90;;;;;;5055265;28;20503;-81
2021/12/26 12:48:50;;;;;;;8.57;7.57;;;7.30;53.20;;;;;;5028811;28;20094;-84
2021/12/26 12:51:16;;;;;;;11.80;7.60;;;7.30;53.40;;;;;;5007314;28;20045;-81
2021/12/26 12:53:55;;;;;;;9.32;7.22;;;7.20;53.40;;;;;;5024407;28;20036;-76
2021/12/26 12:56:31;;;;;;;8.77;7.60;;;7.10;53.00;;;;;;5042954;28;20037;-80
2021/12/26 12:59:16;;;;;;;9.98;6.78;;;7.00;53.30;;;;;;5064625;28;20041;-80
2021/12/26 13:01:51;;;;;;;11.20;7.75;;;7.00;52.40;;;;;;5059316;28;20492;-80
2021/12/26 13:04:27;;;;;;;10.23;7.55;;;7.10;53.30;;;;;;5048062;28;20040;-78
2021/12/26 13:07:06;;;;;;;8.63;7.57;;;7.30;52.80;;;;;;5042044;28;20052;-79
2021/12/26 13:09:33;;;;;;;10.82;7.50;;;7.50;51.40;;;;;;5027974;28;20108;-80
2021/12/26 13:12:01;;;;;;;9.20;7.18;;;7.60;51.50;;;;;;5032155;28;20040;-80
2021/12/26 13:14:41;;;;;;;9.57;7.05;;;7.70;51.10;;;;;;5043621;28;20090;-80
2021/12/26 13:17:13;;;;;;;8.70;7.10;;;7.80;50.50;;;;;;5057617;28;20040;-78
2021/12/26 13:19:38;;;;;;;12.97;7.73;;;7.80;50.70;;;;;;5041265;28;20064;-77
2021/12/26 13:22:06;;;;;;;9.70;7.47;;;7.80;50.70;;;;;;5031942;28;20099;-78
2021/12/26 13:24:42;;;;;;;9.90;7.75;;;7.70;50.60;;;;;;5031099;28;20135;-81
2021/12/26 13:27:08;;;;;;;11.48;7.40;;;7.60;50.80;;;;;;5055649;28;20037;-78
2021/12/26 13:29:47;;;;;;;10.52;7.18;;;7.20;51.30;;;;;;5007268;28;20451;-78
2021/12/26 13:32:12;;;;;;;8.27;6.82;;;7.00;51.80;;;;;;5033322;28;20252;-78
2021/12/26 13:34:38;;;;;;;10.13;7.78;;;6.90;52.00;;;;;;5032383;28;20506;-81
2021/12/26 13:37:07;;;;;;;10.43;7.78;;;7.20;53.70;;;;;;5007414;28;20132;-81
2021/12/26 13:39:33;;;;;;;9.07;7.63;;;7.10;51.80;;;;;;5065647;28;20109;-84
2021/12/26 13:41:58;;;;;;;8.75;7.13;;;7.00;51.90;;;;;;5036963;28;20041;-80
2021/12/26 13:44:24;;;;;;;10.55;7.63;;;6.70;52.00;;;;;;5015550;28;20123;-85
2021/12/26 13:47:16;;;;;;;9.45;8.00;;;6.50;52.50;;;;;;5052160;28;20522;-79
2021/12/26 13:49:46;;;;;;;9.90;7.28;;;6.20;52.30;;;;;;5018070;28;20400;-80
2021/12/26 13:52:16;;;;;;;11.68;8.57;;;5.90;53.60;;;;;;5064630;28;20530;-88
2021/12/26 13:54:49;;;;;;;9.07;7.68;;;5.50;54.10;;;;;;5005311;28;20053;-87
2021/12/26 13:57:20;;;;;;;9.27;7.57;;;5.20;54.80;;;;;;5049509;28;20064;-84
2021/12/26 13:59:47;;;;;;;10.50;7.93;;;5.00;55.30;;;;;;5002372;28;20048;-85
2021/12/26 14:02:20;;;;;;;9.65;8.23;;;4.70;56.00;;;;;;5021308;28;20048;-83
2021/12/26 14:04:48;;;;;;;10.38;7.97;;;4.40;56.50;;;;;;5003499;28;20040;-80
2021/12/26 14:07:27;;;;;;;11.75;8.40;;;4.10;57.20;;;;;;5011284;28;20059;-84
2021/12/26 14:09:56;;;;;;;10.90;8.05;;;3.90;57.50;;;;;;5017070;28;20048;-88
2021/12/26 14:12:44;;;;;;;10.05;8.02;;;3.50;58.10;;;;;;5017775;28;20642;-84
2021/12/26 14:15:34;;;;;;;11.07;8.60;;;3.30;58.60;;;;;;5000766;28;20072;-81
2021/12/26 14:18:23;;;;;;;10.98;8.30;;;3.10;59.30;;;;;;5051858;28;20130;-83
2021/12/26 14:21:08;;;;;;;10.90;8.32;;;2.90;59.70;;;;;;5049794;28;20102;-81
2021/12/26 14:23:41;;;;;;;11.07;8.55;;;2.70;60.10;;;;;;5071405;28;20037;-83
2021/12/26 14:26:19;;;;;;;11.73;8.95;;;2.60;60.60;;;;;;5050579;28;20053;-81
2021/12/26 14:28:54;;;;;;;9.65;7.60;;;2.50;60.90;;;;;;5033967;28;20131;-82
2021/12/26 14:31:33;;;;;;;12.88;8.32;;;2.40;61.30;;;;;;5053579;28;20082;-80
2021/12/26 14:34:10;;;;;;;;;;;;;;;;;;;;;
2021/12/26 14:36:50;;;;;;;10.57;8.00;;;2.20;62.10;;;;;;5071863;28;20041;-83
2021/12/26 14:39:17;;;;;;;13.52;9.02;;;2.10;62.30;;;;;;5031161;28;20044;-82
2021/12/26 14:41:49;;;;;;;10.95;7.90;;;2.00;62.70;;;;;;5021301;28;20438;-83
2021/12/26 14:44:25;;;;;;;10.35;8.55;;;1.90;62.90;;;;;;5037333;28;20105;-82
2021/12/26 14:47:18;;;;;;;12.05;8.98;;;1.90;63.20;;;;;;5033787;28;20072;-78
2021/12/26 14:49:45;;;;;;;11.75;8.93;;;1.80;63.40;;;;;;5041350;28;20150;-80
2021/12/26 14:52:12;;;;;;;12.02;8.88;;;1.80;63.70;;;;;;5031844;28;20125;-82
2021/12/26 14:54:51;;;;;;;10.55;8.23;;;1.70;64.00;;;;;;5024176;28;20049;-82
2021/12/26 14:57:43;;;;;;;12.43;8.55;;;1.70;64.30;;;;;;5063307;28;20076;-79